createdAt,value
2018-02-17T00:00:10.414Z,16.72
2018-02-17T00:02:36.193Z,16.72
2018-02-17T00:05:02.091Z,16.83
2018-02-17T00:07:27.878Z,16.82
2018-02-17T00:09:53.699Z,16.74
2018-02-17T00:12:19.487Z,16.59
2018-02-17T00:14:45.281Z,16.71
2018-02-17T00:17:11.119Z,16.61
2018-02-17T00:19:36.904Z,16.60
2018-02-17T00:22:03.718Z,16.69
2018-02-17T00:24:29.529Z,16.81
2018-02-17T00:26:55.373Z,16.81
2018-02-17T00:29:21.188Z,16.82
2018-02-17T00:31:47.955Z,16.84
2018-02-17T00:34:13.785Z,16.80
2018-02-17T00:36:39.581Z,16.75
2018-02-17T00:39:05.384Z,16.72
2018-02-17T00:41:31.170Z,16.76
2018-02-17T00:43:57.945Z,16.83
2018-02-17T00:46:24.807Z,16.90
2018-02-17T00:48:51.592Z,16.78
2018-02-17T00:51:18.382Z,16.80
2018-02-17T00:53:44.286Z,16.76
2018-02-17T00:56:11.094Z,16.80
2018-02-17T00:58:36.882Z,16.65
2018-02-17T01:01:03.629Z,16.77
2018-02-17T01:03:30.425Z,16.84
2018-02-17T01:05:56.211Z,16.83
2018-02-17T01:08:22.978Z,16.72
2018-02-17T01:10:49.739Z,16.76
2018-02-17T01:13:15.529Z,16.83
2018-02-17T01:15:41.321Z,16.78
2018-02-17T01:18:07.141Z,16.65
2018-02-17T01:20:32.958Z,16.63
2018-02-17T01:22:58.754Z,16.76
2018-02-17T01:25:25.426Z,16.74
2018-02-17T01:27:51.216Z,16.74
2018-02-17T01:30:17.898Z,16.83
2018-02-17T01:32:43.686Z,16.83
2018-02-17T01:35:09.509Z,16.73
2018-02-17T01:37:36.111Z,16.83
2018-02-17T01:40:01.905Z,16.77
2018-02-17T01:42:28.563Z,16.67
2018-02-17T01:44:54.361Z,16.75
2018-02-17T01:47:21.197Z,16.88
2018-02-17T01:49:46.976Z,16.71
2018-02-17T01:52:13.084Z,16.70
2018-02-17T01:54:39.750Z,16.74
2018-02-17T01:57:06.457Z,16.74
2018-02-17T01:59:32.295Z,16.71
2018-02-17T02:01:58.894Z,16.78
2018-02-17T02:04:25.636Z,16.65
2018-02-17T02:06:51.420Z,16.66
2018-02-17T02:09:17.246Z,16.69
2018-02-17T02:11:43.059Z,16.75
2018-02-17T02:14:09.674Z,16.81
2018-02-17T02:16:35.474Z,16.73
2018-02-17T02:19:01.256Z,16.70
2018-02-17T02:21:28.083Z,16.70
2018-02-17T02:23:53.877Z,16.85
2018-02-17T02:26:19.662Z,16.76
2018-02-17T02:28:45.459Z,16.84
2018-02-17T02:31:11.252Z,16.95
2018-02-17T02:33:37.034Z,16.83
2018-02-17T02:36:02.814Z,16.82
2018-02-17T02:38:28.642Z,16.85
2018-02-17T02:40:54.428Z,16.77
2018-02-17T02:43:20.250Z,16.75
2018-02-17T02:45:46.896Z,16.88
2018-02-17T02:48:12.718Z,16.81
2018-02-17T02:50:38.498Z,16.81
2018-02-17T02:53:04.290Z,16.89
2018-02-17T02:55:30.123Z,16.89
2018-02-17T02:57:55.900Z,16.78
2018-02-17T03:00:21.686Z,16.78
2018-02-17T03:02:47.470Z,16.81
2018-02-17T03:05:13.256Z,16.84
2018-02-17T03:07:39.064Z,16.81
2018-02-17T03:10:04.859Z,16.97
2018-02-17T03:12:30.645Z,16.90
2018-02-17T03:14:56.536Z,16.87
2018-02-17T03:17:22.340Z,16.80
2018-02-17T03:19:48.125Z,16.81
2018-02-17T03:22:13.905Z,16.88
2018-02-17T03:24:39.697Z,16.83
2018-02-17T03:27:05.495Z,16.80
2018-02-17T03:29:31.314Z,16.86
2018-02-17T03:31:57.098Z,16.88
2018-02-17T03:34:22.918Z,16.73
2018-02-17T03:36:49.670Z,16.84
2018-02-17T03:39:15.451Z,16.77
2018-02-17T03:41:41.282Z,16.89
2018-02-17T03:44:07.057Z,16.81
2018-02-17T03:46:33.691Z,16.84
2018-02-17T03:49:00.566Z,16.81
2018-02-17T03:51:27.324Z,16.84
2018-02-17T03:53:53.120Z,16.78
2018-02-17T03:56:19.735Z,16.85
2018-02-17T03:58:45.517Z,16.89
2018-02-17T04:01:12.315Z,16.96
2018-02-17T04:03:39.106Z,16.95
2018-02-17T04:06:04.930Z,16.85
2018-02-17T04:08:31.723Z,16.84
2018-02-17T04:10:57.513Z,16.83
2018-02-17T04:13:24.313Z,16.88
2018-02-17T04:15:50.097Z,16.84
2018-02-17T04:18:15.957Z,16.83
2018-02-17T04:20:41.747Z,16.77
2018-02-17T04:23:07.561Z,16.78
2018-02-17T04:25:33.355Z,16.74
2018-02-17T04:28:00.106Z,16.87
2018-02-17T04:30:25.902Z,16.88
2018-02-17T04:32:52.541Z,17.03
2018-02-17T04:35:18.394Z,16.97
2018-02-17T04:37:45.162Z,16.91
2018-02-17T04:40:17.125Z,16.87
2018-02-17T04:42:58.745Z,16.95
2018-02-17T04:45:27.526Z,16.77
2018-02-17T04:47:59.369Z,16.90
2018-02-17T04:50:31.161Z,16.88
2018-02-17T04:53:03.127Z,16.88
2018-02-17T04:58:39.825Z,16.75
2018-02-17T05:01:11.522Z,16.69
2018-02-17T05:03:53.230Z,16.80
2018-02-17T05:06:22.833Z,16.82
2018-02-17T05:11:46.333Z,16.85
2018-02-17T05:14:14.078Z,16.90
2018-02-17T05:16:42.611Z,16.94
2018-02-17T05:19:09.429Z,16.82
2018-02-17T05:21:37.203Z,16.95
2018-02-17T05:24:03.949Z,16.95
2018-02-17T05:26:31.770Z,16.92
2018-02-17T05:29:07.574Z,16.95
2018-02-17T05:31:34.266Z,16.88
2018-02-17T05:34:06.265Z,16.94
2018-02-17T05:36:35.179Z,17.03
2018-02-17T05:39:03.910Z,17.10
2018-02-17T05:44:36.497Z,16.62
2018-02-17T05:47:07.103Z,17.04
2018-02-17T05:49:35.779Z,17.03
2018-02-17T05:52:01.641Z,17.06
2018-02-17T05:54:28.321Z,17.16
2018-02-17T05:56:55.061Z,16.98
2018-02-17T05:59:20.841Z,16.90
2018-02-17T06:01:46.661Z,16.95
2018-02-17T06:04:12.474Z,17.01
2018-02-17T06:06:39.145Z,16.99
2018-02-17T06:09:04.986Z,17.18
2018-02-17T06:11:31.791Z,17.13
2018-02-17T06:13:57.578Z,17.15
2018-02-17T06:16:24.242Z,17.23
2018-02-17T06:18:50.237Z,17.10
2018-02-17T06:21:16.046Z,17.10
2018-02-17T06:23:42.662Z,17.17
2018-02-17T06:26:09.461Z,17.15
2018-02-17T06:28:35.246Z,17.21
2018-02-17T06:31:01.878Z,17.18
2018-02-17T06:33:28.637Z,17.14
2018-02-17T06:35:54.636Z,17.01
2018-02-17T06:38:21.509Z,17.19
2018-02-17T06:40:47.289Z,17.14
2018-02-17T06:43:13.925Z,17.10
2018-02-17T06:45:40.601Z,17.21
2018-02-17T06:48:06.418Z,17.42
2018-02-17T06:50:32.189Z,16.74
2018-02-17T06:52:58.826Z,16.87
2018-02-17T06:55:25.563Z,16.32
2018-02-17T06:57:51.378Z,15.42
2018-02-17T07:00:17.199Z,14.93
2018-02-17T07:02:43.024Z,15.30
2018-02-17T07:05:08.867Z,14.93
2018-02-17T07:07:34.746Z,14.40
2018-02-17T07:10:02.165Z,15.65
2018-02-17T07:12:28.010Z,16.22
2018-02-17T07:14:53.831Z,16.53
2018-02-17T07:17:19.645Z,16.66
2018-02-17T07:19:45.470Z,16.75
2018-02-17T07:22:12.159Z,16.82
2018-02-17T07:24:39.004Z,16.97
2018-02-17T07:27:05.694Z,16.95
2018-02-17T07:29:31.505Z,16.85
2018-02-17T07:31:58.263Z,16.81
2018-02-17T07:34:24.236Z,16.86
2018-02-17T07:36:50.006Z,16.92
2018-02-17T07:39:15.784Z,17.03
2018-02-17T07:41:41.554Z,17.04
2018-02-17T07:44:07.372Z,17.09
2018-02-17T07:46:34.086Z,16.88
2018-02-17T07:48:59.861Z,16.93
2018-02-17T07:51:25.649Z,16.92
2018-02-17T07:53:51.437Z,15.90
2018-02-17T07:56:17.240Z,15.45
2018-02-17T07:58:43.025Z,15.56
2018-02-17T08:01:08.842Z,14.86
2018-02-17T08:03:34.645Z,15.44
2018-02-17T08:06:00.422Z,15.60
2018-02-17T08:08:26.254Z,15.61
2018-02-17T08:10:52.282Z,15.48
2018-02-17T08:13:18.065Z,15.63
2018-02-17T08:15:43.842Z,15.70
2018-02-17T08:18:09.662Z,15.52
2018-02-17T08:20:36.019Z,15.75
2018-02-17T08:23:02.712Z,15.36
2018-02-17T08:25:29.421Z,15.67
2018-02-17T08:27:55.270Z,15.99
2018-02-17T08:30:21.134Z,16.26
2018-02-17T08:32:47.770Z,16.50
2018-02-17T08:35:13.598Z,16.92
2018-02-17T08:37:40.423Z,17.24
2018-02-17T08:40:07.227Z,17.21
2018-02-17T08:42:34.003Z,17.61
2018-02-17T08:45:00.802Z,17.40
2018-02-17T08:47:27.629Z,16.57
2018-02-17T08:49:54.373Z,16.18
2018-02-17T08:52:21.070Z,16.00
2018-02-17T08:54:47.776Z,15.83
2018-02-17T08:57:14.597Z,15.75
2018-02-17T08:59:41.256Z,15.93
2018-02-17T09:02:08.085Z,16.77
2018-02-17T09:04:34.889Z,16.39
2018-02-17T09:07:00.673Z,16.22
2018-02-17T09:09:26.631Z,16.11
2018-02-17T09:11:52.427Z,15.41
2018-02-17T09:14:19.187Z,15.61
2018-02-17T09:16:44.969Z,15.68
2018-02-17T09:19:10.750Z,15.77
2018-02-17T09:21:36.582Z,16.00
2018-02-17T09:24:02.406Z,15.95
2018-02-17T09:26:28.234Z,15.96
2018-02-17T09:28:54.025Z,15.85
2018-02-17T09:31:19.842Z,15.86
2018-02-17T09:33:45.626Z,15.69
2018-02-17T09:36:12.372Z,15.91
2018-02-17T09:38:39.126Z,15.97
2018-02-17T09:41:04.909Z,15.79
2018-02-17T09:43:30.723Z,15.93
2018-02-17T09:45:57.318Z,16.27
2018-02-17T09:48:24.192Z,16.23
2018-02-17T09:50:50.913Z,15.90
2018-02-17T09:53:16.749Z,15.76
2018-02-17T09:55:43.367Z,15.62
2018-02-17T09:58:10.116Z,15.59
2018-02-17T10:00:35.898Z,15.42
2018-02-17T10:03:02.614Z,15.72
2018-02-17T10:05:29.358Z,15.59
2018-02-17T10:07:55.144Z,15.81
2018-02-17T10:10:21.870Z,15.99
2018-02-17T10:12:48.663Z,15.96
2018-02-17T10:15:15.402Z,16.04
2018-02-17T10:17:42.099Z,16.09
2018-02-17T10:20:07.952Z,15.85
2018-02-17T10:22:34.574Z,16.04
2018-02-17T10:25:01.409Z,16.05
2018-02-17T10:27:28.398Z,16.12
2018-02-17T10:29:54.206Z,16.14
2018-02-17T10:32:20.987Z,16.15
2018-02-17T10:34:46.764Z,16.15
2018-02-17T10:37:12.583Z,16.18
2018-02-17T10:39:39.186Z,16.11
2018-02-17T10:42:05.968Z,16.16
2018-02-17T10:44:32.737Z,16.45
2018-02-17T10:46:58.515Z,16.33
2018-02-17T10:49:24.299Z,16.78
2018-02-17T10:51:50.126Z,16.39
2018-02-17T10:54:16.743Z,16.95
2018-02-17T10:56:42.567Z,17.18
2018-02-17T10:59:09.170Z,17.46
2018-02-17T11:01:34.994Z,17.56
2018-02-17T11:04:00.786Z,17.58
2018-02-17T11:06:26.602Z,17.61
2018-02-17T11:08:52.399Z,17.81
2018-02-17T11:11:19.108Z,17.80
2018-02-17T11:13:44.897Z,17.81
2018-02-17T11:16:10.707Z,17.46
2018-02-17T11:18:36.519Z,17.47
2018-02-17T11:21:02.311Z,17.34
2018-02-17T11:23:28.107Z,17.27
2018-02-17T11:25:53.893Z,17.24
2018-02-17T11:28:20.521Z,17.61
2018-02-17T11:30:46.299Z,17.77
2018-02-17T11:33:12.121Z,17.90
2018-02-17T11:35:37.960Z,17.88
2018-02-17T11:38:03.817Z,17.92
2018-02-17T11:40:29.633Z,17.93
2018-02-17T11:42:55.414Z,17.93
2018-02-17T11:45:21.202Z,17.08
2018-02-17T11:47:46.988Z,14.80
2018-02-17T11:50:12.766Z,15.79
2018-02-17T11:52:38.565Z,15.82
2018-02-17T11:55:04.366Z,15.05
2018-02-17T11:57:30.166Z,15.61
2018-02-17T11:59:55.943Z,15.76
2018-02-17T12:02:21.762Z,15.96
2018-02-17T12:04:48.550Z,15.44
2018-02-17T12:07:14.338Z,14.60
2018-02-17T12:09:40.120Z,15.12
2018-02-17T12:12:05.943Z,14.62
2018-02-17T12:14:31.724Z,14.48
2018-02-17T12:16:58.615Z,14.81
2018-02-17T12:19:24.394Z,14.16
2018-02-17T12:21:50.254Z,14.31
2018-02-17T12:24:16.890Z,13.96
2018-02-17T12:26:42.737Z,13.62
2018-02-17T12:29:08.513Z,13.90
2018-02-17T12:31:34.335Z,13.99
2018-02-17T12:34:01.053Z,14.36
2018-02-17T12:36:27.838Z,14.84
2018-02-17T12:38:53.658Z,14.36
2018-02-17T12:41:19.434Z,13.45
2018-02-17T12:43:46.022Z,14.57
2018-02-17T12:46:12.773Z,15.47
2018-02-17T12:48:39.571Z,16.18
2018-02-17T12:51:05.358Z,16.44
2018-02-17T12:53:31.135Z,16.63
2018-02-17T12:55:57.871Z,16.69
2018-02-17T12:58:23.694Z,16.64
2018-02-17T13:00:49.520Z,16.84
2018-02-17T13:03:15.308Z,17.00
2018-02-17T13:05:41.951Z,17.06
2018-02-17T13:08:07.740Z,17.01
2018-02-17T13:10:33.526Z,17.06
2018-02-17T13:12:59.361Z,17.08
2018-02-17T13:15:26.166Z,17.06
2018-02-17T13:17:51.968Z,17.08
2018-02-17T13:20:17.841Z,17.14
2018-02-17T13:22:43.634Z,17.18
2018-02-17T13:25:09.414Z,17.14
2018-02-17T13:27:35.194Z,17.14
2018-02-17T13:30:01.136Z,17.17
2018-02-17T13:32:27.917Z,17.12
2018-02-17T13:34:54.694Z,17.18
2018-02-17T13:37:21.554Z,17.18
2018-02-17T13:39:48.327Z,17.16
2018-02-17T13:42:15.085Z,17.20
2018-02-17T13:44:40.898Z,17.24
2018-02-17T13:47:07.495Z,17.25
2018-02-17T13:49:34.119Z,16.50
2018-02-17T13:52:00.987Z,16.55
2018-02-17T13:54:26.869Z,16.01
2018-02-17T13:56:53.578Z,15.93
2018-02-17T13:59:19.350Z,16.16
2018-02-17T14:01:45.125Z,16.19
2018-02-17T14:04:11.740Z,16.06
2018-02-17T14:06:37.538Z,15.48
2018-02-17T14:09:05.740Z,13.54
2018-02-17T14:11:31.553Z,13.31
2018-02-17T14:13:58.186Z,12.56
2018-02-17T14:16:23.983Z,13.30
2018-02-17T14:18:50.690Z,13.83
2018-02-17T14:21:16.500Z,12.63
2018-02-17T14:23:42.301Z,12.51
2018-02-17T14:26:10.107Z,12.51
2018-02-17T14:28:35.943Z,12.39
2018-02-17T14:31:01.786Z,12.22
2018-02-17T14:33:27.594Z,12.03
2018-02-17T14:35:53.407Z,11.95
2018-02-17T14:38:19.246Z,12.23
2018-02-17T14:40:45.085Z,13.19
2018-02-17T14:43:10.922Z,14.05
2018-02-17T14:45:36.718Z,13.29
2018-02-17T14:48:02.641Z,12.11
2018-02-17T14:50:28.453Z,11.64
2018-02-17T14:52:54.291Z,11.49
2018-02-17T14:55:20.143Z,11.52
2018-02-17T14:57:46.013Z,11.55
2018-02-17T15:00:11.822Z,11.53
2018-02-17T15:02:37.623Z,12.39
2018-02-17T15:05:03.422Z,13.67
2018-02-17T15:07:29.231Z,14.33
2018-02-17T15:09:55.048Z,14.55
2018-02-17T15:12:20.847Z,14.60
2018-02-17T15:14:47.530Z,14.82
2018-02-17T15:17:13.882Z,14.94
2018-02-17T15:19:40.588Z,15.00
2018-02-17T15:22:06.358Z,15.12
2018-02-17T15:24:32.144Z,15.08
2018-02-17T15:26:58.893Z,15.01
2018-02-17T15:29:24.696Z,15.09
2018-02-17T15:31:52.783Z,15.16
2018-02-17T15:34:19.656Z,15.15
2018-02-17T15:36:46.438Z,15.23
2018-02-17T15:39:12.284Z,15.33
2018-02-17T15:41:38.089Z,15.06
2018-02-17T15:44:03.910Z,15.25
2018-02-17T15:46:29.702Z,15.21
2018-02-17T15:48:55.531Z,15.32
2018-02-17T15:51:22.150Z,15.29
2018-02-17T15:53:47.979Z,15.07
2018-02-17T15:56:14.490Z,15.25
2018-02-17T15:58:40.318Z,15.24
2018-02-17T16:01:07.131Z,15.41
2018-02-17T16:03:33.066Z,15.42
2018-02-17T16:05:58.860Z,15.41
2018-02-17T16:08:24.687Z,15.38
2018-02-17T16:10:50.671Z,15.38
2018-02-17T16:13:16.529Z,15.26
2018-02-17T16:15:42.389Z,15.29
2018-02-17T16:18:09.190Z,15.28
2018-02-17T16:20:34.997Z,15.37
2018-02-17T16:23:01.599Z,15.43
2018-02-17T16:25:28.401Z,15.30
2018-02-17T16:27:54.272Z,15.34
2018-02-17T16:30:21.077Z,15.41
2018-02-17T16:32:49.067Z,15.43
2018-02-17T16:35:14.902Z,15.41
2018-02-17T16:37:41.828Z,15.30
2018-02-17T16:40:08.467Z,15.29
2018-02-17T16:42:35.250Z,15.27
2018-02-17T16:45:02.033Z,15.32
2018-02-17T16:47:28.919Z,14.51
2018-02-17T16:49:55.757Z,13.73
2018-02-17T16:52:24.601Z,14.69
2018-02-17T16:54:53.512Z,14.78
2018-02-17T16:57:20.535Z,14.87
2018-02-17T17:02:37.275Z,15.22
2018-02-17T17:05:04.019Z,15.32
2018-02-17T17:07:29.841Z,15.43
2018-02-17T17:09:55.710Z,15.39
2018-02-17T17:12:21.982Z,15.27
2018-02-17T17:15:03.880Z,15.35
2018-02-17T17:29:04.025Z,15.41
2018-02-17T17:31:29.843Z,15.46
2018-02-17T17:33:56.807Z,15.45
2018-02-17T17:36:23.464Z,15.25
2018-02-17T17:38:49.266Z,15.40
2018-02-17T17:41:15.086Z,15.35
2018-02-17T17:43:41.217Z,15.32
2018-02-17T17:46:07.973Z,15.55
2018-02-17T17:48:35.886Z,15.54
2018-02-17T17:51:01.690Z,15.53
2018-02-17T17:53:27.506Z,15.50
2018-02-17T17:55:53.371Z,15.57
2018-02-17T17:58:19.187Z,15.65
2018-02-17T18:00:47.836Z,15.47
2018-02-17T18:03:13.716Z,15.50
2018-02-17T18:05:39.592Z,15.43
2018-02-17T18:08:05.393Z,15.49
2018-02-17T18:10:31.211Z,15.39
2018-02-17T18:12:58.400Z,15.24
2018-02-17T18:15:24.444Z,15.27
2018-02-17T18:17:50.348Z,15.46
2018-02-17T18:20:19.130Z,15.36
2018-02-17T18:22:45.468Z,15.41
2018-02-17T18:25:17.275Z,15.39
2018-02-17T18:27:43.865Z,15.36
2018-02-17T18:30:09.699Z,15.41
2018-02-17T18:32:35.603Z,15.43
2018-02-17T18:35:02.575Z,15.46
2018-02-17T18:37:28.843Z,15.47
2018-02-17T18:39:54.780Z,15.45
2018-02-17T18:42:21.608Z,15.58
2018-02-17T18:44:48.609Z,15.58
2018-02-17T18:47:14.516Z,13.44
2018-02-17T18:49:40.413Z,12.74
2018-02-17T18:52:07.034Z,12.73
2018-02-17T18:54:34.843Z,12.80
2018-02-17T18:57:00.658Z,13.25
2018-02-17T18:59:26.548Z,14.57
2018-02-17T19:01:52.355Z,14.97
2018-02-17T19:04:19.808Z,15.36
2018-02-17T19:06:46.655Z,15.49
2018-02-17T19:09:12.470Z,15.64
2018-02-17T19:11:38.342Z,15.82
2018-02-17T19:14:04.138Z,15.79
2018-02-17T19:16:29.939Z,15.89
2018-02-17T19:18:56.669Z,15.83
2018-02-17T19:21:22.463Z,15.83
2018-02-17T19:23:48.273Z,15.72
2018-02-17T19:26:14.081Z,15.85
2018-02-17T19:28:39.919Z,15.82
2018-02-17T19:31:05.717Z,15.78
2018-02-17T19:33:31.528Z,15.74
2018-02-17T19:35:57.327Z,15.85
2018-02-17T19:38:23.154Z,15.82
2018-02-17T19:40:48.986Z,15.71
2018-02-17T19:43:16.007Z,15.92
2018-02-17T19:45:42.710Z,15.89
2018-02-17T19:48:26.275Z,15.84
2018-02-17T19:50:53.216Z,15.65
2018-02-17T19:53:19.663Z,15.64
2018-02-17T19:56:02.043Z,15.71
2018-02-17T19:58:28.101Z,15.76
2018-02-17T20:00:54.127Z,15.87
2018-02-17T20:06:08.945Z,15.85
2018-02-17T20:08:35.698Z,15.84
2018-02-17T20:11:02.486Z,15.93
2018-02-17T20:13:28.317Z,15.80
2018-02-17T20:15:54.229Z,15.92
2018-02-17T20:18:20.078Z,15.95
2018-02-17T20:20:45.917Z,15.74
2018-02-17T20:23:11.766Z,15.88
2018-02-17T20:25:37.620Z,15.91
2018-02-17T20:28:03.483Z,15.81
2018-02-17T20:30:29.375Z,16.01
2018-02-17T20:32:55.240Z,15.84
2018-02-17T20:35:21.096Z,15.77
2018-02-17T20:37:46.945Z,15.94
2018-02-17T20:40:12.790Z,16.08
2018-02-17T20:42:39.483Z,15.82
2018-02-17T20:45:05.389Z,16.04
2018-02-17T20:47:31.237Z,15.95
2018-02-17T20:49:57.059Z,16.13
2018-02-17T20:52:23.712Z,15.87
2018-02-17T20:54:49.523Z,15.96
2018-02-17T20:57:15.475Z,16.02
2018-02-17T20:59:41.300Z,15.87
2018-02-17T21:02:08.096Z,15.68
2018-02-17T21:04:33.901Z,15.56
2018-02-17T21:07:00.628Z,15.65
2018-02-17T21:09:27.391Z,15.65
2018-02-17T21:11:53.235Z,15.86
2018-02-17T21:14:19.046Z,16.07
2018-02-17T21:16:45.809Z,16.06
2018-02-17T21:19:11.599Z,16.04
2018-02-17T21:21:37.390Z,16.00
2018-02-17T21:24:03.237Z,16.02
2018-02-17T21:26:29.844Z,16.07
2018-02-17T21:28:55.652Z,15.93
2018-02-17T21:31:22.353Z,15.90
2018-02-17T21:33:48.167Z,15.97
2018-02-17T21:36:14.945Z,15.90
2018-02-17T21:38:40.763Z,15.78
2018-02-17T21:41:06.573Z,15.79
2018-02-17T21:43:32.502Z,15.78
2018-02-17T21:45:59.252Z,15.90
2018-02-17T21:48:26.170Z,15.93
2018-02-17T21:50:52.790Z,15.92
2018-02-17T21:53:19.643Z,15.92
2018-02-17T21:55:45.651Z,16.00
2018-02-17T21:58:11.473Z,16.02
2018-02-17T22:00:38.259Z,15.86
2018-02-17T22:03:05.014Z,15.83
2018-02-17T22:05:30.866Z,16.12
2018-02-17T22:07:56.704Z,15.90
2018-02-17T22:10:23.362Z,15.90
2018-02-17T22:12:50.169Z,16.06
2018-02-17T22:15:15.970Z,15.89
2018-02-17T22:17:41.774Z,15.94
2018-02-17T22:20:07.823Z,16.08
2018-02-17T22:22:33.654Z,15.93
2018-02-17T22:24:59.466Z,15.94
2018-02-17T22:27:25.266Z,15.88
2018-02-17T22:29:52.128Z,16.00
2018-02-17T22:32:17.949Z,16.02
2018-02-17T22:34:43.786Z,16.00
2018-02-17T22:37:10.414Z,16.01
2018-02-17T22:39:36.262Z,16.08
2018-02-17T22:42:02.062Z,15.92
2018-02-17T22:44:27.863Z,15.95
2018-02-17T22:46:53.667Z,15.79
2018-02-17T22:49:19.502Z,15.87
2018-02-17T22:51:45.338Z,15.82
2018-02-17T22:54:12.118Z,15.82
2018-02-17T22:56:37.921Z,15.90
2018-02-17T22:59:03.746Z,15.84
2018-02-17T23:01:30.715Z,15.98
2018-02-17T23:03:56.510Z,16.14
2018-02-17T23:06:23.269Z,16.04
2018-02-17T23:08:49.076Z,16.04
2018-02-17T23:11:14.950Z,16.02
2018-02-17T23:13:40.742Z,16.00
2018-02-17T23:16:06.550Z,15.96
2018-02-17T23:18:32.358Z,15.92
2018-02-17T23:20:58.151Z,16.00
2018-02-17T23:23:23.998Z,16.02
2018-02-17T23:25:49.795Z,16.01
2018-02-17T23:28:15.612Z,15.98
2018-02-17T23:30:41.438Z,15.74
2018-02-17T23:33:08.147Z,15.81
2018-02-17T23:35:33.985Z,15.75
2018-02-17T23:37:59.782Z,15.90
2018-02-17T23:40:25.586Z,15.94
2018-02-17T23:42:52.253Z,15.77
2018-02-17T23:45:19.069Z,15.93
2018-02-17T23:47:45.092Z,15.82
2018-02-17T23:50:10.890Z,16.01
2018-02-17T23:52:37.662Z,15.91
2018-02-17T23:55:03.468Z,16.02
2018-02-17T23:57:29.268Z,15.89
2018-02-17T23:59:55.110Z,15.83
